sensor_id;sensor_type;location;lat;lon;timestamp;P1;durP1;ratioP1;P2;durP2;ratioP2
3712;SDS011;1872;51.406;6.856;2023-03-31T00:00:51;5.37;;;3.40;;
3712;SDS011;1872;51.406;6.856;2023-03-31T00:03:18;5.50;;;3.67;;
3712;SDS011;1872;51.406;6.856;2023-03-31T00:05:47;5.30;;;3.40;;
3712;SDS011;1872;51.406;6.856;2023-03-31T00:08:17;5.93;;;3.33;;
3712;SDS011;1872;51.406;6.856;2023-03-31T00:10:43;4.90;;;3.40;;
3712;SDS011;1872;51.406;6.856;2023-03-31T00:13:11;6.20;;;2.90;;
3712;SDS011;1872;51.406;6.856;2023-03-31T00:15:36;5.27;;;3.17;;
3712;SDS011;1872;51.406;6.856;2023-03-31T00:18:03;2.77;;;2.57;;
3712;SDS011;1872;51.406;6.856;2023-03-31T00:20:28;3.40;;;2.67;;
3712;SDS011;1872;51.406;6.856;2023-03-31T00:22:57;6.43;;;3.20;;
3712;SDS011;1872;51.406;6.856;2023-03-31T00:25:23;4.20;;;3.40;;
3712;SDS011;1872;51.406;6.856;2023-03-31T00:27:49;3.00;;;2.40;;
3712;SDS011;1872;51.406;6.856;2023-03-31T00:30:14;5.57;;;2.80;;
3712;SDS011;1872;51.406;6.856;2023-03-31T00:32:40;4.30;;;2.70;;
3712;SDS011;1872;51.406;6.856;2023-03-31T00:35:06;4.60;;;2.40;;
3712;SDS011;1872;51.406;6.856;2023-03-31T00:37:32;2.90;;;2.40;;
3712;SDS011;1872;51.406;6.856;2023-03-31T00:39:59;4.53;;;2.87;;
3712;SDS011;1872;51.406;6.856;2023-03-31T00:42:25;4.60;;;2.80;;
3712;SDS011;1872;51.406;6.856;2023-03-31T00:47:32;4.50;;;2.47;;
3712;SDS011;1872;51.406;6.856;2023-03-31T00:49:58;4.43;;;2.57;;
3712;SDS011;1872;51.406;6.856;2023-03-31T00:52:30;5.10;;;2.60;;
3712;SDS011;1872;51.406;6.856;2023-03-31T00:55:09;3.70;;;2.93;;
3712;SDS011;1872;51.406;6.856;2023-03-31T00:57:40;6.90;;;2.70;;
3712;SDS011;1872;51.406;6.856;2023-03-31T01:00:11;2.87;;;2.67;;
3712;SDS011;1872;51.406;6.856;2023-03-31T01:02:42;3.97;;;2.37;;
3712;SDS011;1872;51.406;6.856;2023-03-31T01:05:19;3.67;;;2.70;;
3712;SDS011;1872;51.406;6.856;2023-03-31T01:08:05;2.97;;;2.67;;
3712;SDS011;1872;51.406;6.856;2023-03-31T01:10:35;3.30;;;3.00;;
3712;SDS011;1872;51.406;6.856;2023-03-31T01:13:06;6.33;;;2.93;;
3712;SDS011;1872;51.406;6.856;2023-03-31T01:15:34;4.40;;;2.80;;
3712;SDS011;1872;51.406;6.856;2023-03-31T01:18:00;5.90;;;3.00;;
3712;SDS011;1872;51.406;6.856;2023-03-31T01:26:14;4.20;;;2.60;;
3712;SDS011;1872;51.406;6.856;2023-03-31T01:40:43;7.07;;;2.73;;
3712;SDS011;1872;51.406;6.856;2023-03-31T01:43:28;4.50;;;2.40;;
3712;SDS011;1872;51.406;6.856;2023-03-31T01:54:54;3.90;;;2.53;;
3712;SDS011;1872;51.406;6.856;2023-03-31T01:57:34;4.37;;;2.60;;
3712;SDS011;1872;51.406;6.856;2023-03-31T02:00:04;5.67;;;2.73;;
3712;SDS011;1872;51.406;6.856;2023-03-31T02:02:36;5.23;;;2.50;;
3712;SDS011;1872;51.406;6.856;2023-03-31T02:05:14;4.30;;;2.90;;
3712;SDS011;1872;51.406;6.856;2023-03-31T02:07:48;3.17;;;2.17;;
3712;SDS011;1872;51.406;6.856;2023-03-31T02:10:19;3.27;;;2.93;;
3712;SDS011;1872;51.406;6.856;2023-03-31T02:12:47;3.10;;;2.80;;
3712;SDS011;1872;51.406;6.856;2023-03-31T02:15:17;3.20;;;2.90;;
3712;SDS011;1872;51.406;6.856;2023-03-31T02:17:47;4.60;;;2.40;;
3712;SDS011;1872;51.406;6.856;2023-03-31T02:20:16;3.13;;;2.67;;
3712;SDS011;1872;51.406;6.856;2023-03-31T02:22:46;4.00;;;2.90;;
3712;SDS011;1872;51.406;6.856;2023-03-31T02:25:19;3.03;;;2.67;;
3712;SDS011;1872;51.406;6.856;2023-03-31T02:27:53;4.30;;;3.07;;
3712;SDS011;1872;51.406;6.856;2023-03-31T02:30:23;3.63;;;2.57;;
3712;SDS011;1872;51.406;6.856;2023-03-31T02:32:58;4.30;;;2.83;;
3712;SDS011;1872;51.406;6.856;2023-03-31T02:35:24;3.30;;;2.90;;
3712;SDS011;1872;51.406;6.856;2023-03-31T02:37:50;3.93;;;3.10;;
3712;SDS011;1872;51.406;6.856;2023-03-31T02:40:20;7.63;;;3.13;;
3712;SDS011;1872;51.406;6.856;2023-03-31T02:42:47;9.83;;;4.03;;
3712;SDS011;1872;51.406;6.856;2023-03-31T02:48:01;8.90;;;4.27;;
3712;SDS011;1872;51.406;6.856;2023-03-31T02:50:28;11.20;;;3.40;;
3712;SDS011;1872;51.406;6.856;2023-03-31T02:53:05;6.43;;;3.43;;
3712;SDS011;1872;51.406;6.856;2023-03-31T02:56:02;4.80;;;3.20;;
3712;SDS011;1872;51.406;6.856;2023-03-31T03:02:16;6.93;;;3.43;;
3712;SDS011;1872;51.406;6.856;2023-03-31T03:07:39;5.50;;;3.07;;
3712;SDS011;1872;51.406;6.856;2023-03-31T03:12:55;6.63;;;3.27;;
3712;SDS011;1872;51.406;6.856;2023-03-31T03:15:29;4.00;;;3.10;;
3712;SDS011;1872;51.406;6.856;2023-03-31T03:18:00;7.13;;;3.97;;
3712;SDS011;1872;51.406;6.856;2023-03-31T03:20:27;4.40;;;3.10;;
3712;SDS011;1872;51.406;6.856;2023-03-31T03:22:54;5.87;;;2.50;;
3712;SDS011;1872;51.406;6.856;2023-03-31T03:25:20;8.43;;;3.40;;
3712;SDS011;1872;51.406;6.856;2023-03-31T03:27:46;5.13;;;3.50;;
3712;SDS011;1872;51.406;6.856;2023-03-31T03:30:12;6.10;;;3.27;;
3712;SDS011;1872;51.406;6.856;2023-03-31T03:32:38;8.77;;;3.37;;
3712;SDS011;1872;51.406;6.856;2023-03-31T03:35:04;7.73;;;4.00;;
3712;SDS011;1872;51.406;6.856;2023-03-31T03:37:32;4.50;;;3.20;;
3712;SDS011;1872;51.406;6.856;2023-03-31T03:39:57;6.23;;;2.90;;
3712;SDS011;1872;51.406;6.856;2023-03-31T03:42:23;6.70;;;3.57;;
3712;SDS011;1872;51.406;6.856;2023-03-31T03:44:49;5.63;;;3.10;;
3712;SDS011;1872;51.406;6.856;2023-03-31T03:47:15;4.50;;;2.87;;
3712;SDS011;1872;51.406;6.856;2023-03-31T03:49:40;3.97;;;3.23;;
3712;SDS011;1872;51.406;6.856;2023-03-31T03:52:06;5.67;;;4.10;;
3712;SDS011;1872;51.406;6.856;2023-03-31T03:54:34;5.77;;;3.47;;
3712;SDS011;1872;51.406;6.856;2023-03-31T03:56:59;12.30;;;5.10;;
3712;SDS011;1872;51.406;6.856;2023-03-31T03:59:25;6.47;;;4.20;;
3712;SDS011;1872;51.406;6.856;2023-03-31T04:01:51;6.97;;;3.40;;
3712;SDS011;1872;51.406;6.856;2023-03-31T04:04:17;7.83;;;4.00;;
3712;SDS011;1872;51.406;6.856;2023-03-31T04:06:43;6.40;;;3.73;;
3712;SDS011;1872;51.406;6.856;2023-03-31T04:09:09;7.03;;;2.97;;
3712;SDS011;1872;51.406;6.856;2023-03-31T04:11:35;4.37;;;2.73;;
3712;SDS011;1872;51.406;6.856;2023-03-31T04:14:01;5.20;;;3.83;;
3712;SDS011;1872;51.406;6.856;2023-03-31T04:16:26;10.67;;;3.23;;
3712;SDS011;1872;51.406;6.856;2023-03-31T04:18:54;7.33;;;3.80;;
3712;SDS011;1872;51.406;6.856;2023-03-31T04:21:23;14.07;;;3.70;;
3712;SDS011;1872;51.406;6.856;2023-03-31T04:23:50;7.80;;;3.57;;
3712;SDS011;1872;51.406;6.856;2023-03-31T04:26:23;5.93;;;3.40;;
3712;SDS011;1872;51.406;6.856;2023-03-31T04:28:57;7.00;;;3.13;;
3712;SDS011;1872;51.406;6.856;2023-03-31T04:31:24;10.07;;;3.23;;
3712;SDS011;1872;51.406;6.856;2023-03-31T04:33:51;4.73;;;2.77;;
3712;SDS011;1872;51.406;6.856;2023-03-31T04:36:17;6.00;;;4.10;;
3712;SDS011;1872;51.406;6.856;2023-03-31T04:38:43;3.70;;;3.40;;
3712;SDS011;1872;51.406;6.856;2023-03-31T04:41:14;8.37;;;3.93;;
3712;SDS011;1872;51.406;6.856;2023-03-31T04:43:40;6.27;;;4.23;;
3712;SDS011;1872;51.406;6.856;2023-03-31T04:46:05;7.67;;;3.93;;
3712;SDS011;1872;51.406;6.856;2023-03-31T04:48:31;6.27;;;4.10;;
3712;SDS011;1872;51.406;6.856;2023-03-31T04:50:57;8.50;;;3.53;;
3712;SDS011;1872;51.406;6.856;2023-03-31T04:53:22;11.63;;;4.63;;
3712;SDS011;1872;51.406;6.856;2023-03-31T04:55:49;3.60;;;3.27;;
3712;SDS011;1872;51.406;6.856;2023-03-31T04:58:15;6.30;;;3.27;;
3712;SDS011;1872;51.406;6.856;2023-03-31T05:00:40;8.30;;;4.00;;
3712;SDS011;1872;51.406;6.856;2023-03-31T05:03:06;3.60;;;3.20;;
3712;SDS011;1872;51.406;6.856;2023-03-31T05:05:34;4.37;;;3.07;;
3712;SDS011;1872;51.406;6.856;2023-03-31T05:08:00;6.27;;;2.97;;
3712;SDS011;1872;51.406;6.856;2023-03-31T05:10:26;10.80;;;3.30;;
3712;SDS011;1872;51.406;6.856;2023-03-31T05:12:52;4.90;;;2.97;;
3712;SDS011;1872;51.406;6.856;2023-03-31T05:15:18;4.97;;;3.20;;
3712;SDS011;1872;51.406;6.856;2023-03-31T05:17:43;5.60;;;2.73;;
3712;SDS011;1872;51.406;6.856;2023-03-31T05:20:09;3.13;;;2.87;;
3712;SDS011;1872;51.406;6.856;2023-03-31T05:22:37;4.73;;;3.07;;
3712;SDS011;1872;51.406;6.856;2023-03-31T05:25:04;4.50;;;2.80;;
3712;SDS011;1872;51.406;6.856;2023-03-31T05:27:32;8.73;;;3.60;;
3712;SDS011;1872;51.406;6.856;2023-03-31T05:29:58;6.60;;;3.83;;
3712;SDS011;1872;51.406;6.856;2023-03-31T05:32:25;9.90;;;3.57;;
3712;SDS011;1872;51.406;6.856;2023-03-31T05:34:51;7.30;;;3.27;;
3712;SDS011;1872;51.406;6.856;2023-03-31T05:37:21;6.57;;;3.00;;
3712;SDS011;1872;51.406;6.856;2023-03-31T05:39:50;7.27;;;2.70;;
3712;SDS011;1872;51.406;6.856;2023-03-31T05:42:16;4.33;;;3.33;;
3712;SDS011;1872;51.406;6.856;2023-03-31T05:44:43;5.77;;;3.07;;
3712;SDS011;1872;51.406;6.856;2023-03-31T05:47:08;4.00;;;2.97;;
3712;SDS011;1872;51.406;6.856;2023-03-31T05:49:34;6.73;;;3.37;;
3712;SDS011;1872;51.406;6.856;2023-03-31T05:52:00;4.40;;;3.67;;
3712;SDS011;1872;51.406;6.856;2023-03-31T05:54:26;4.23;;;3.03;;
3712;SDS011;1872;51.406;6.856;2023-03-31T05:56:52;7.83;;;2.90;;
3712;SDS011;1872;51.406;6.856;2023-03-31T05:59:18;4.00;;;3.30;;
3712;SDS011;1872;51.406;6.856;2023-03-31T06:01:43;8.97;;;4.00;;
3712;SDS011;1872;51.406;6.856;2023-03-31T06:04:09;5.33;;;2.90;;
3712;SDS011;1872;51.406;6.856;2023-03-31T06:06:35;9.80;;;3.50;;
3712;SDS011;1872;51.406;6.856;2023-03-31T06:09:02;6.97;;;2.90;;
3712;SDS011;1872;51.406;6.856;2023-03-31T06:11:29;5.73;;;3.20;;
3712;SDS011;1872;51.406;6.856;2023-03-31T06:13:55;6.23;;;3.00;;
3712;SDS011;1872;51.406;6.856;2023-03-31T06:16:22;5.87;;;2.63;;
3712;SDS011;1872;51.406;6.856;2023-03-31T06:18:49;4.03;;;2.50;;
3712;SDS011;1872;51.406;6.856;2023-03-31T06:21:17;7.37;;;2.83;;
3712;SDS011;1872;51.406;6.856;2023-03-31T06:23:43;3.03;;;2.37;;
3712;SDS011;1872;51.406;6.856;2023-03-31T06:26:10;3.53;;;2.90;;
3712;SDS011;1872;51.406;6.856;2023-03-31T06:28:38;4.87;;;3.30;;
3712;SDS011;1872;51.406;6.856;2023-03-31T06:31:08;3.67;;;2.53;;
3712;SDS011;1872;51.406;6.856;2023-03-31T06:33:36;3.60;;;2.50;;
3712;SDS011;1872;51.406;6.856;2023-03-31T06:36:03;5.07;;;2.60;;
3712;SDS011;1872;51.406;6.856;2023-03-31T06:38:31;3.07;;;2.80;;
3712;SDS011;1872;51.406;6.856;2023-03-31T06:40:58;5.47;;;3.33;;
3712;SDS011;1872;51.406;6.856;2023-03-31T06:43:24;6.37;;;2.53;;
3712;SDS011;1872;51.406;6.856;2023-03-31T06:45:51;5.37;;;3.00;;
3712;SDS011;1872;51.406;6.856;2023-03-31T06:48:17;6.93;;;3.40;;
3712;SDS011;1872;51.406;6.856;2023-03-31T06:50:43;5.33;;;2.80;;
3712;SDS011;1872;51.406;6.856;2023-03-31T06:53:09;3.40;;;3.13;;
3712;SDS011;1872;51.406;6.856;2023-03-31T06:55:35;7.23;;;2.87;;
3712;SDS011;1872;51.406;6.856;2023-03-31T06:58:02;5.90;;;2.90;;
3712;SDS011;1872;51.406;6.856;2023-03-31T07:00:30;5.57;;;3.33;;
3712;SDS011;1872;51.406;6.856;2023-03-31T07:02:56;3.53;;;2.80;;
3712;SDS011;1872;51.406;6.856;2023-03-31T07:05:22;4.20;;;3.00;;
3712;SDS011;1872;51.406;6.856;2023-03-31T07:07:55;3.50;;;2.70;;
3712;SDS011;1872;51.406;6.856;2023-03-31T07:10:23;3.10;;;2.80;;
3712;SDS011;1872;51.406;6.856;2023-03-31T07:12:50;3.40;;;2.87;;
3712;SDS011;1872;51.406;6.856;2023-03-31T07:15:16;7.90;;;3.57;;
3712;SDS011;1872;51.406;6.856;2023-03-31T07:17:42;4.60;;;3.40;;
3712;SDS011;1872;51.406;6.856;2023-03-31T07:20:14;3.97;;;3.20;;
3712;SDS011;1872;51.406;6.856;2023-03-31T07:22:42;3.33;;;3.03;;
3712;SDS011;1872;51.406;6.856;2023-03-31T07:25:09;5.23;;;3.63;;
3712;SDS011;1872;51.406;6.856;2023-03-31T07:27:36;4.70;;;3.10;;
3712;SDS011;1872;51.406;6.856;2023-03-31T07:30:08;7.17;;;3.70;;
3712;SDS011;1872;51.406;6.856;2023-03-31T07:32:36;12.63;;;4.17;;
3712;SDS011;1872;51.406;6.856;2023-03-31T07:35:04;4.50;;;3.67;;
3712;SDS011;1872;51.406;6.856;2023-03-31T07:37:34;4.10;;;2.93;;
3712;SDS011;1872;51.406;6.856;2023-03-31T07:40:01;3.50;;;3.20;;
3712;SDS011;1872;51.406;6.856;2023-03-31T07:42:29;4.37;;;4.03;;
3712;SDS011;1872;51.406;6.856;2023-03-31T07:44:56;5.77;;;3.07;;
3712;SDS011;1872;51.406;6.856;2023-03-31T07:47:21;3.60;;;3.17;;
3712;SDS011;1872;51.406;6.856;2023-03-31T07:49:48;6.23;;;5.63;;
3712;SDS011;1872;51.406;6.856;2023-03-31T07:52:15;6.00;;;3.50;;
3712;SDS011;1872;51.406;6.856;2023-03-31T07:54:44;5.43;;;4.80;;
3712;SDS011;1872;51.406;6.856;2023-03-31T07:57:10;6.33;;;3.90;;
3712;SDS011;1872;51.406;6.856;2023-03-31T07:59:36;4.50;;;2.97;;
3712;SDS011;1872;51.406;6.856;2023-03-31T08:02:02;5.10;;;3.53;;
3712;SDS011;1872;51.406;6.856;2023-03-31T08:04:27;5.27;;;3.50;;
3712;SDS011;1872;51.406;6.856;2023-03-31T08:06:53;7.63;;;3.13;;
3712;SDS011;1872;51.406;6.856;2023-03-31T08:09:19;8.00;;;3.40;;
3712;SDS011;1872;51.406;6.856;2023-03-31T08:11:47;4.40;;;3.10;;
3712;SDS011;1872;51.406;6.856;2023-03-31T08:14:13;3.40;;;3.10;;
3712;SDS011;1872;51.406;6.856;2023-03-31T08:16:39;4.07;;;3.57;;
3712;SDS011;1872;51.406;6.856;2023-03-31T08:19:05;4.73;;;2.93;;
3712;SDS011;1872;51.406;6.856;2023-03-31T08:21:30;5.10;;;3.40;;
3712;SDS011;1872;51.406;6.856;2023-03-31T08:23:56;4.87;;;3.13;;
3712;SDS011;1872;51.406;6.856;2023-03-31T08:26:23;2.93;;;2.73;;
3712;SDS011;1872;51.406;6.856;2023-03-31T08:28:50;5.80;;;2.97;;
3712;SDS011;1872;51.406;6.856;2023-03-31T08:31:17;2.93;;;2.73;;
3712;SDS011;1872;51.406;6.856;2023-03-31T08:33:44;4.50;;;2.90;;
3712;SDS011;1872;51.406;6.856;2023-03-31T08:36:11;4.43;;;3.70;;
3712;SDS011;1872;51.406;6.856;2023-03-31T08:38:38;3.90;;;3.10;;
3712;SDS011;1872;51.406;6.856;2023-03-31T08:43:50;5.77;;;2.90;;
3712;SDS011;1872;51.406;6.856;2023-03-31T08:46:18;3.30;;;3.00;;
3712;SDS011;1872;51.406;6.856;2023-03-31T08:48:48;4.00;;;3.13;;
3712;SDS011;1872;51.406;6.856;2023-03-31T08:54:00;5.03;;;3.50;;
3712;SDS011;1872;51.406;6.856;2023-03-31T08:56:29;6.10;;;3.37;;
3712;SDS011;1872;51.406;6.856;2023-03-31T08:59:04;4.13;;;3.13;;
3712;SDS011;1872;51.406;6.856;2023-03-31T09:09:20;4.07;;;3.77;;
3712;SDS011;1872;51.406;6.856;2023-03-31T09:11:53;3.47;;;2.97;;
3712;SDS011;1872;51.406;6.856;2023-03-31T09:14:30;3.50;;;3.10;;
3712;SDS011;1872;51.406;6.856;2023-03-31T09:17:06;7.53;;;3.07;;
3712;SDS011;1872;51.406;6.856;2023-03-31T09:22:55;6.67;;;2.73;;
3712;SDS011;1872;51.406;6.856;2023-03-31T09:25:33;4.33;;;2.63;;
3712;SDS011;1872;51.406;6.856;2023-03-31T09:28:02;3.93;;;3.53;;
3712;SDS011;1872;51.406;6.856;2023-03-31T09:30:44;4.80;;;3.47;;
3712;SDS011;1872;51.406;6.856;2023-03-31T09:33:33;5.10;;;3.00;;
3712;SDS011;1872;51.406;6.856;2023-03-31T09:36:00;8.90;;;3.73;;
3712;SDS011;1872;51.406;6.856;2023-03-31T09:38:27;5.90;;;3.53;;
3712;SDS011;1872;51.406;6.856;2023-03-31T09:40:56;4.70;;;2.90;;
3712;SDS011;1872;51.406;6.856;2023-03-31T09:43:23;7.13;;;3.13;;
3712;SDS011;1872;51.406;6.856;2023-03-31T09:45:52;8.13;;;5.70;;
3712;SDS011;1872;51.406;6.856;2023-03-31T09:48:25;4.63;;;2.47;;
3712;SDS011;1872;51.406;6.856;2023-03-31T09:51:03;9.27;;;4.77;;
3712;SDS011;1872;51.406;6.856;2023-03-31T09:59:13;4.90;;;3.63;;
3712;SDS011;1872;51.406;6.856;2023-03-31T10:01:41;5.13;;;2.87;;
3712;SDS011;1872;51.406;6.856;2023-03-31T10:04:10;9.73;;;4.70;;
3712;SDS011;1872;51.406;6.856;2023-03-31T10:06:48;9.07;;;3.73;;
3712;SDS011;1872;51.406;6.856;2023-03-31T10:09:17;6.50;;;3.07;;
3712;SDS011;1872;51.406;6.856;2023-03-31T10:11:51;4.13;;;3.27;;
3712;SDS011;1872;51.406;6.856;2023-03-31T10:14:22;5.30;;;3.57;;
3712;SDS011;1872;51.406;6.856;2023-03-31T10:16:53;4.90;;;3.33;;
3712;SDS011;1872;51.406;6.856;2023-03-31T10:19:28;4.07;;;3.30;;
3712;SDS011;1872;51.406;6.856;2023-03-31T10:22:00;7.03;;;2.43;;
3712;SDS011;1872;51.406;6.856;2023-03-31T10:24:41;6.30;;;2.30;;
3712;SDS011;1872;51.406;6.856;2023-03-31T10:29:49;3.50;;;2.33;;
3712;SDS011;1872;51.406;6.856;2023-03-31T10:32:27;9.13;;;2.70;;
3712;SDS011;1872;51.406;6.856;2023-03-31T10:34:55;4.90;;;2.77;;
3712;SDS011;1872;51.406;6.856;2023-03-31T10:37:22;5.30;;;3.03;;
3712;SDS011;1872;51.406;6.856;2023-03-31T10:39:56;9.63;;;6.40;;
3712;SDS011;1872;51.406;6.856;2023-03-31T10:42:22;8.10;;;4.50;;
3712;SDS011;1872;51.406;6.856;2023-03-31T10:44:49;12.33;;;8.40;;
3712;SDS011;1872;51.406;6.856;2023-03-31T10:47:40;4.40;;;3.27;;
3712;SDS011;1872;51.406;6.856;2023-03-31T10:50:12;8.37;;;3.73;;
3712;SDS011;1872;51.406;6.856;2023-03-31T10:52:46;9.50;;;3.30;;
3712;SDS011;1872;51.406;6.856;2023-03-31T10:55:22;9.73;;;4.20;;
3712;SDS011;1872;51.406;6.856;2023-03-31T10:57:57;7.83;;;3.10;;
3712;SDS011;1872;51.406;6.856;2023-03-31T11:03:36;4.27;;;3.00;;
3712;SDS011;1872;51.406;6.856;2023-03-31T11:06:13;8.53;;;3.40;;
3712;SDS011;1872;51.406;6.856;2023-03-31T11:09:09;10.33;;;3.00;;
3712;SDS011;1872;51.406;6.856;2023-03-31T11:17:48;5.93;;;2.40;;
3712;SDS011;1872;51.406;6.856;2023-03-31T11:27:56;4.67;;;2.13;;
3712;SDS011;1872;51.406;6.856;2023-03-31T11:30:49;2.50;;;1.80;;
3712;SDS011;1872;51.406;6.856;2023-03-31T11:33:46;2.47;;;2.27;;
3712;SDS011;1872;51.406;6.856;2023-03-31T11:41:51;2.40;;;2.00;;
3712;SDS011;1872;51.406;6.856;2023-03-31T11:44:34;4.53;;;2.97;;
3712;SDS011;1872;51.406;6.856;2023-03-31T11:47:08;3.50;;;2.23;;
3712;SDS011;1872;51.406;6.856;2023-03-31T11:49:37;4.57;;;2.57;;
3712;SDS011;1872;51.406;6.856;2023-03-31T11:52:14;7.60;;;2.60;;
3712;SDS011;1872;51.406;6.856;2023-03-31T12:00:19;3.10;;;2.00;;
3712;SDS011;1872;51.406;6.856;2023-03-31T12:02:50;2.30;;;1.77;;
3712;SDS011;1872;51.406;6.856;2023-03-31T12:05:27;2.20;;;2.00;;
3712;SDS011;1872;51.406;6.856;2023-03-31T12:10:51;3.90;;;2.20;;
3712;SDS011;1872;51.406;6.856;2023-03-31T12:16:00;4.47;;;1.93;;
3712;SDS011;1872;51.406;6.856;2023-03-31T12:18:30;4.20;;;2.57;;
3712;SDS011;1872;51.406;6.856;2023-03-31T12:21:03;4.17;;;2.30;;
3712;SDS011;1872;51.406;6.856;2023-03-31T12:23:33;5.50;;;2.10;;
3712;SDS011;1872;51.406;6.856;2023-03-31T12:28:33;8.63;;;2.33;;
3712;SDS011;1872;51.406;6.856;2023-03-31T12:31:02;6.13;;;2.57;;
3712;SDS011;1872;51.406;6.856;2023-03-31T12:33:31;6.13;;;2.37;;
3712;SDS011;1872;51.406;6.856;2023-03-31T12:39:01;5.40;;;3.13;;
3712;SDS011;1872;51.406;6.856;2023-03-31T12:41:39;3.80;;;3.03;;
3712;SDS011;1872;51.406;6.856;2023-03-31T12:49:46;7.20;;;2.70;;
3712;SDS011;1872;51.406;6.856;2023-03-31T12:55:37;3.90;;;2.17;;
3712;SDS011;1872;51.406;6.856;2023-03-31T12:58:49;7.43;;;2.83;;
3712;SDS011;1872;51.406;6.856;2023-03-31T13:08:55;5.77;;;2.50;;
3712;SDS011;1872;51.406;6.856;2023-03-31T13:11:33;7.90;;;2.50;;
3712;SDS011;1872;51.406;6.856;2023-03-31T13:16:28;4.53;;;2.57;;
3712;SDS011;1872;51.406;6.856;2023-03-31T13:18:55;5.10;;;3.00;;
3712;SDS011;1872;51.406;6.856;2023-03-31T13:21:22;4.10;;;2.33;;
3712;SDS011;1872;51.406;6.856;2023-03-31T13:23:48;5.00;;;2.50;;
3712;SDS011;1872;51.406;6.856;2023-03-31T13:26:33;3.87;;;2.40;;
3712;SDS011;1872;51.406;6.856;2023-03-31T13:34:46;4.07;;;1.90;;
3712;SDS011;1872;51.406;6.856;2023-03-31T13:41:22;4.63;;;2.23;;
3712;SDS011;1872;51.406;6.856;2023-03-31T13:43:27;4.90;;;2.30;;
3712;SDS011;1872;51.406;6.856;2023-03-31T14:05:38;3.40;;;2.20;;
3712;SDS011;1872;51.406;6.856;2023-03-31T14:08:10;4.10;;;2.10;;
3712;SDS011;1872;51.406;6.856;2023-03-31T14:10:40;2.50;;;1.87;;
3712;SDS011;1872;51.406;6.856;2023-03-31T14:13:10;3.20;;;2.13;;
3712;SDS011;1872;51.406;6.856;2023-03-31T14:15:45;5.03;;;2.17;;
3712;SDS011;1872;51.406;6.856;2023-03-31T14:18:13;3.30;;;1.70;;
3712;SDS011;1872;51.406;6.856;2023-03-31T14:23:40;2.40;;;2.20;;
3712;SDS011;1872;51.406;6.856;2023-03-31T14:31:34;2.90;;;1.93;;
3712;SDS011;1872;51.406;6.856;2023-03-31T14:39:11;4.07;;;1.67;;
3712;SDS011;1872;51.406;6.856;2023-03-31T14:41:40;5.40;;;1.83;;
3712;SDS011;1872;51.406;6.856;2023-03-31T14:44:11;3.10;;;2.10;;
3712;SDS011;1872;51.406;6.856;2023-03-31T14:46:40;7.50;;;2.17;;
3712;SDS011;1872;51.406;6.856;2023-03-31T14:49:27;5.20;;;2.37;;
3712;SDS011;1872;51.406;6.856;2023-03-31T14:51:54;4.27;;;2.20;;
3712;SDS011;1872;51.406;6.856;2023-03-31T14:54:24;5.80;;;2.17;;
3712;SDS011;1872;51.406;6.856;2023-03-31T14:56:50;9.50;;;2.83;;
3712;SDS011;1872;51.406;6.856;2023-03-31T14:59:23;6.27;;;2.40;;
3712;SDS011;1872;51.406;6.856;2023-03-31T15:01:52;8.10;;;3.40;;
3712;SDS011;1872;51.406;6.856;2023-03-31T15:04:21;4.60;;;2.43;;
3712;SDS011;1872;51.406;6.856;2023-03-31T15:06:49;3.80;;;2.40;;
3712;SDS011;1872;51.406;6.856;2023-03-31T15:11:55;4.23;;;2.40;;
3712;SDS011;1872;51.406;6.856;2023-03-31T15:14:27;10.50;;;4.10;;
3712;SDS011;1872;51.406;6.856;2023-03-31T15:16:55;12.23;;;4.70;;
3712;SDS011;1872;51.406;6.856;2023-03-31T15:19:21;5.97;;;3.30;;
3712;SDS011;1872;51.406;6.856;2023-03-31T15:22:31;5.43;;;3.53;;
3712;SDS011;1872;51.406;6.856;2023-03-31T15:24:43;5.90;;;2.73;;
3712;SDS011;1872;51.406;6.856;2023-03-31T15:27:14;3.70;;;2.37;;
3712;SDS011;1872;51.406;6.856;2023-03-31T15:30:04;3.40;;;2.00;;
3712;SDS011;1872;51.406;6.856;2023-03-31T15:32:35;4.47;;;2.07;;
3712;SDS011;1872;51.406;6.856;2023-03-31T15:35:05;3.87;;;2.30;;
3712;SDS011;1872;51.406;6.856;2023-03-31T15:37:41;4.17;;;2.10;;
3712;SDS011;1872;51.406;6.856;2023-03-31T15:40:18;4.90;;;2.57;;
3712;SDS011;1872;51.406;6.856;2023-03-31T15:43:57;3.70;;;2.07;;
3712;SDS011;1872;51.406;6.856;2023-03-31T15:45:57;3.33;;;2.13;;
3712;SDS011;1872;51.406;6.856;2023-03-31T15:48:27;5.17;;;2.17;;
3712;SDS011;1872;51.406;6.856;2023-03-31T15:51:45;4.53;;;2.10;;
3712;SDS011;1872;51.406;6.856;2023-03-31T15:53:52;2.70;;;1.80;;
3712;SDS011;1872;51.406;6.856;2023-03-31T15:56:29;3.20;;;1.67;;
3712;SDS011;1872;51.406;6.856;2023-03-31T15:58:59;2.10;;;1.90;;
3712;SDS011;1872;51.406;6.856;2023-03-31T16:01:28;5.70;;;2.70;;
3712;SDS011;1872;51.406;6.856;2023-03-31T16:03:57;1.80;;;1.70;;
3712;SDS011;1872;51.406;6.856;2023-03-31T16:09:01;1.73;;;1.63;;
3712;SDS011;1872;51.406;6.856;2023-03-31T16:11:35;2.07;;;1.93;;
3712;SDS011;1872;51.406;6.856;2023-03-31T16:14:26;4.47;;;1.50;;
3712;SDS011;1872;51.406;6.856;2023-03-31T16:16:58;5.60;;;2.07;;
3712;SDS011;1872;51.406;6.856;2023-03-31T16:19:55;3.60;;;1.93;;
3712;SDS011;1872;51.406;6.856;2023-03-31T16:22:31;4.67;;;1.47;;
3712;SDS011;1872;51.406;6.856;2023-03-31T16:25:07;1.80;;;1.63;;
3712;SDS011;1872;51.406;6.856;2023-03-31T16:27:42;1.53;;;1.33;;
3712;SDS011;1872;51.406;6.856;2023-03-31T16:30:12;3.50;;;2.10;;
3712;SDS011;1872;51.406;6.856;2023-03-31T16:33:14;3.30;;;3.10;;
3712;SDS011;1872;51.406;6.856;2023-03-31T16:35:37;3.43;;;1.77;;
3712;SDS011;1872;51.406;6.856;2023-03-31T16:38:06;1.90;;;1.63;;
3712;SDS011;1872;51.406;6.856;2023-03-31T16:40:38;1.80;;;1.47;;
3712;SDS011;1872;51.406;6.856;2023-03-31T16:43:15;2.17;;;1.60;;
3712;SDS011;1872;51.406;6.856;2023-03-31T16:45:44;6.07;;;1.50;;
3712;SDS011;1872;51.406;6.856;2023-03-31T16:51:30;1.43;;;1.33;;
3712;SDS011;1872;51.406;6.856;2023-03-31T16:53:55;3.80;;;1.80;;
3712;SDS011;1872;51.406;6.856;2023-03-31T16:56:21;4.03;;;2.20;;
3712;SDS011;1872;51.406;6.856;2023-03-31T16:58:47;3.60;;;1.97;;
3712;SDS011;1872;51.406;6.856;2023-03-31T17:01:13;2.00;;;1.50;;
3712;SDS011;1872;51.406;6.856;2023-03-31T17:03:38;2.90;;;1.67;;
3712;SDS011;1872;51.406;6.856;2023-03-31T17:06:06;2.83;;;1.70;;
3712;SDS011;1872;51.406;6.856;2023-03-31T17:08:35;2.60;;;2.40;;
3712;SDS011;1872;51.406;6.856;2023-03-31T17:11:06;2.53;;;1.70;;
3712;SDS011;1872;51.406;6.856;2023-03-31T17:13:35;2.20;;;2.00;;
3712;SDS011;1872;51.406;6.856;2023-03-31T17:16:01;2.73;;;2.13;;
3712;SDS011;1872;51.406;6.856;2023-03-31T17:18:28;2.27;;;2.10;;
3712;SDS011;1872;51.406;6.856;2023-03-31T17:20:54;3.73;;;3.43;;
3712;SDS011;1872;51.406;6.856;2023-03-31T17:23:27;2.87;;;1.90;;
3712;SDS011;1872;51.406;6.856;2023-03-31T17:25:54;2.10;;;1.90;;
3712;SDS011;1872;51.406;6.856;2023-03-31T17:28:19;3.87;;;1.90;;
3712;SDS011;1872;51.406;6.856;2023-03-31T17:30:45;1.90;;;1.77;;
3712;SDS011;1872;51.406;6.856;2023-03-31T17:33:13;5.27;;;2.10;;
3712;SDS011;1872;51.406;6.856;2023-03-31T17:35:40;2.10;;;1.80;;
3712;SDS011;1872;51.406;6.856;2023-03-31T17:38:06;3.57;;;2.90;;
3712;SDS011;1872;51.406;6.856;2023-03-31T17:40:33;1.87;;;1.77;;
3712;SDS011;1872;51.406;6.856;2023-03-31T17:43:00;2.77;;;1.97;;
3712;SDS011;1872;51.406;6.856;2023-03-31T17:45:27;2.33;;;1.83;;
3712;SDS011;1872;51.406;6.856;2023-03-31T17:47:53;2.33;;;2.13;;
3712;SDS011;1872;51.406;6.856;2023-03-31T17:50:19;2.30;;;1.77;;
3712;SDS011;1872;51.406;6.856;2023-03-31T17:52:45;6.60;;;2.20;;
3712;SDS011;1872;51.406;6.856;2023-03-31T17:55:11;2.17;;;1.80;;
3712;SDS011;1872;51.406;6.856;2023-03-31T17:57:38;4.60;;;2.10;;
3712;SDS011;1872;51.406;6.856;2023-03-31T18:00:04;3.83;;;1.93;;
3712;SDS011;1872;51.406;6.856;2023-03-31T18:02:36;2.40;;;2.20;;
3712;SDS011;1872;51.406;6.856;2023-03-31T18:05:03;3.23;;;2.37;;
3712;SDS011;1872;51.406;6.856;2023-03-31T18:07:31;1.63;;;1.37;;
3712;SDS011;1872;51.406;6.856;2023-03-31T18:09:57;2.73;;;1.53;;
3712;SDS011;1872;51.406;6.856;2023-03-31T18:12:23;4.73;;;2.50;;
3712;SDS011;1872;51.406;6.856;2023-03-31T18:14:49;3.77;;;2.20;;
3712;SDS011;1872;51.406;6.856;2023-03-31T18:17:15;2.10;;;1.73;;
3712;SDS011;1872;51.406;6.856;2023-03-31T18:19:42;2.10;;;1.73;;
3712;SDS011;1872;51.406;6.856;2023-03-31T18:22:08;3.20;;;2.63;;
3712;SDS011;1872;51.406;6.856;2023-03-31T18:24:35;3.43;;;1.90;;
3712;SDS011;1872;51.406;6.856;2023-03-31T18:27:02;5.13;;;2.47;;